Station: Coonawarra  

  Atmospheric Gas Attenuation - ITU Rec 676-11   ----------------- dB/100km -----------------
Date Time Temp RH % AH g/m3 Dew Point Wind Direction Speed kph Gust kph Barometer mB Rainfall Since 9am 24GHz 47GHz 76GHz 122GHz 134GHz 241GHz
07/05 21:10 11.7 86 9 9.4 15 19 1026.9 0 20.5 27.7 43.2 113.2 107.8 370.9
07/05 21:00 11.5 88 9.09 9.6 11 13 1027 0 20.7 27.9 43.7 114.6 109.3 376.3
07/05 20:50 11.6 87 9.04 9.5 11 13 1027 0 20.6 27.8 43.4 113.8 108.5 373.4
07/05 20:40 12.2 81 8.74 9 19 22 1027.2 0 20.0 27.1 41.8 109.6 103.5 356.1
07/05 20:30 12.6 74 8.19 8.1 15 22 1027.1 0 18.8 26.1 39.4 103.1 95.6 328.3
07/05 20:20 12.5 74 8.14 8 15 17 1027 0 18.7 26.0 39.2 102.6 95.0 326.3
07/05 20:10 12.3 75 8.14 8 15 17 1026.9 0 18.7 26.1 39.3 102.9 95.3 327.1
07/05 20:00 12.1 77 8.26 8.2 13 17 1026.9 0 18.9 26.4 39.9 104.5 97.1 333.6
07/05 19:50 11.8 78 8.21 8.1 11 13 1027 0 18.8 26.4 39.8 104.3 96.8 332.5
07/05 19:40 11.5 80 8.26 8.2 13 15 1026.7 0 19.0 26.5 40.2 105.2 97.9 336.1
07/05 19:30 11.6 79 8.21 8.1 13 20 1026.7 0 18.8 26.4 39.9 104.6 97.1 333.3
07/05 19:20 11.8 78 8.21 8.1 13 15 1026.7 0 18.8 26.4 39.8 104.3 96.8 332.5
07/05 19:10 12 77 8.21 8.1 19 22 1026.9 0 18.8 26.3 39.7 104.0 96.6 331.7
07/05 19:00 12 78 8.31 8.3 17 26 1027 0 19.0 26.5 40.1 105.1 97.9 336.4
07/05 18:50 11.8 80 8.42 8.5 17 20 1027.1 0 19.3 26.7 40.7 106.6 99.7 342.5
07/05 18:40 11.7 82 8.58 8.7 11 13 1027.2 0 19.6 27.0 41.4 108.6 102.0 350.7
07/05 18:30 11.6 82 8.52 8.6 13 17 1027 0 19.5 26.9 41.2 108.0 101.3 348.2
07/05 18:20 11.6 83 8.63 8.8 17 19 1027 0 19.7 27.1 41.7 109.2 102.8 353.5
07/05 18:10 11.5 83 8.57 8.7 15 19 1026.9 0 19.6 27.1 41.5 108.7 102.1 351.0
07/05 18:00 11.3 85 8.67 8.9 11 17 1026.8 0 19.8 27.3 42.0 110.1 103.7 356.7
07/05 17:50 11.3 84 8.57 8.7 13 15 1026.7 0 19.6 27.1 41.6 109.0 102.4 351.8
07/05 17:40 11.4 84 8.62 8.8 15 17 1026.8 0 19.7 27.2 41.7 109.4 102.9 353.8
07/05 17:30 11.5 81 8.37 8.4 15 20 1026.8 0 19.2 26.7 40.6 106.5 99.4 341.4
07/05 17:20 11.5 81 8.37 8.4 17 20 1026.8 0 19.2 26.7 40.6 106.5 99.4 341.4
07/05 17:10 11.3 83 8.47 8.5 15 19 1026.9 0 19.4 26.9 41.2 107.9 101.0 347.1
07/05 17:00 11.2 85 8.62 8.8 19 30 1027.1 0 19.7 27.2 41.9 109.7 103.2 354.8
07/05 16:50 12.1 77 8.26 8.2 17 17 1027.2 0 18.9 26.4 39.9 104.5 97.1 333.7
07/05 16:40 12.3 74 8.04 7.8 19 22 1027 0 18.5 25.9 38.9 101.8 93.9 322.5
07/05 16:30 12.5 72 7.92 7.6 20 28 1026.9 0 18.2 25.7 38.3 100.3 92.1 316.1
07/05 16:20 12.5 70 7.7 7.2 17 20 1026.8 0 17.7 25.3 37.4 97.9 89.2 305.9
07/05 16:10 12.6 71 7.86 7.5 19 20 1026.8 0 18.1 25.6 38.0 99.5 91.2 312.9
07/05 16:00 12.7 68 7.57 7 24 32 1026.9 0 17.4 25.1 36.8 96.3 87.3 299.2
07/05 15:50 13 64 7.26 6.4 22 28 1026.9 0 16.8 24.5 35.5 92.7 82.9 284.0
07/05 15:40 13.1 63 7.19 6.2 19 24 1026.9 0 16.6 24.4 35.2 91.8 81.9 280.5
07/05 15:30 13.1 62 7.08 6 19 33 1026.9 0 16.4 24.2 34.7 90.7 80.5 275.6
07/05 15:20 13 64 7.26 6.4 19 24 1026.9 0 16.8 24.5 35.5 92.7 82.9 284.0
07/05 15:10 13 62 7.03 5.9 24 30 1027 0 16.3 24.1 34.6 90.3 80.0 273.8
07/05 15:00 13.1 62 7.08 6 20 30 1027 0 16.4 24.2 34.7 90.7 80.5 275.7
07/05 14:50 13.3 66 7.63 7.1 15 19 1026.9 0 17.5 25.0 36.8 96.2 87.4 299.6
07/05 14:40 13 65 7.37 6.6 22 26 1026.9 0 17.0 24.7 35.9 93.8 84.3 289.0
07/05 14:30 12.7 65 7.24 6.3 22 32 1026.9 0 16.7 24.5 35.5 92.8 83.0 284.2
07/05 14:20 13.2 64 7.35 6.5 19 22 1027 0 16.9 24.6 35.7 93.4 83.9 287.4
07/05 14:10 12.6 66 7.3 6.4 20 24 1027.1 0 16.9 24.7 35.8 93.6 83.9 287.3
07/05 14:00 13.2 59 6.77 5.4 28 41 1027 0 15.7 23.7 33.5 87.4 76.5 261.6
07/05 13:50 13.7 54 6.39 4.6 24 30 1026.9 0 14.9 23.0 31.9 83.1 71.3 243.4
07/05 13:40 13.9 54 6.47 4.8 24 28 1026.8 0 15.0 23.0 32.1 83.6 72.1 246.3
07/05 13:30 13.2 55 6.32 4.4 26 39 1027 0 14.8 23.0 31.8 82.9 70.9 242.0
07/05 13:20 13.6 53 6.24 4.2 32 39 1026.9 0 14.6 22.8 31.4 81.7 69.6 237.3
07/05 13:10 14.1 58 7.04 6 28 32 1027 0 16.2 23.9 34.2 89.2 79.0 270.5
07/05 13:00 13.9 54 6.47 4.8 30 43 1027 0 15.0 23.0 32.1 83.7 72.1 246.3
07/05 12:50 14.4 54 6.68 5.2 32 39 1026.9 0 15.5 23.2 32.7 85.2 74.3 253.8
07/05 12:40 14.2 58 7.08 6.1 20 24 1026.8 0 16.3 23.9 34.3 89.5 79.4 271.8
07/05 12:30 13.7 60 7.11 6.1 26 39 1027 0 16.4 24.1 34.6 90.3 80.3 274.9
07/05 12:20 13.1 62 7.08 6 28 30 1027.2 0 16.4 24.2 34.7 90.7 80.6 275.7
07/05 12:10 13.6 53 6.24 4.2 30 39 1027.2 0 14.6 22.8 31.4 81.7 69.6 237.4
07/05 12:00 14.6 54 6.76 5.4 28 39 1027.2 0 15.6 23.3 32.9 85.8 75.1 256.7
07/05 11:50 13.3 61 7.05 5.9 28 37 1027.4 0 16.3 24.1 34.5 90.2 80.0 273.7
07/05 11:40 13.6 64 7.53 6.9 26 32 1027.4 0 17.3 24.8 36.3 94.8 85.8 294.1
07/05 11:30 13.7 69 8.17 8.1 22 33 1027.6 0 18.7 25.8 38.8 101.5 94.0 322.9
07/05 11:20 13 71 8.05 7.9 20 24 1027.7 0 18.4 25.8 38.6 101.1 93.3 320.3
07/05 11:10 11.9 75 7.94 7.6 17 20 1027.7 0 18.3 25.9 38.7 101.3 93.1 319.6
07/05 11:00 12.4 69 7.54 6.9 32 44 1027.6 0 17.4 25.1 36.9 96.4 87.3 299.1
07/05 10:50 13.5 58 6.78 5.4 26 35 1027.6 0 15.7 23.6 33.4 87.3 76.4 261.2
07/05 10:40 13.2 62 7.12 6.1 22 28 1027.4 0 16.5 24.2 34.9 91.0 81.0 277.2
07/05 10:30 12.8 64 7.17 6.2 26 35 1027.3 0 16.6 24.4 35.2 92.0 82.0 280.8
07/05 10:20 12 67 7.14 6.1 26 32 1027.5 0 16.5 24.6 35.5 92.6 82.5 282.3
07/05 10:10 12 69 7.35 6.5 33 43 1027.5 0 17.0 24.9 36.3 94.9 85.2 291.9
07/05 10:00 12.8 64 7.17 6.2 22 33 1027.2 0 16.6 24.4 35.2 92.0 82.0 280.8
07/05 09:50 12.5 66 7.26 6.3 26 30 1027.3 0 16.8 24.6 35.7 93.3 83.5 285.9
07/05 09:40 12.1 69 7.4 6.6 22 30 1027.2 0 17.1 25.0 36.4 95.2 85.7 293.7
07/05 09:30 11.7 73 7.64 7 15 20 1027.2 0 17.6 25.5 37.6 98.3 89.3 306.3
07/05 09:20 11.1 73 7.35 6.5 17 20 1027.2 0 17.0 25.2 36.7 95.9 86.2 295.2
07/05 09:10 10.9 76 7.56 6.8 9 15 1027.2 0 17.5 25.6 37.6 98.4 89.2 305.7
07/05 09:00 10.1 76 7.19 6.1 13 17 1027.2 0 16.7 25.2 36.5 95.4 85.2 291.4
07/05 08:50 10 77 7.24 6.2 11 15 1027.3 1.8 16.8 25.3 36.8 96.1 85.9 294.2
07/05 08:40 9.7 79 7.29 6.2 9 15 1027 1.8 17.0 25.5 37.1 97.0 86.9 297.6
07/05 08:30 8.8 81 7.05 5.7 11 15 1027.1 1.8 16.5 25.3 36.5 95.5 84.7 289.7
07/05 08:20 8.3 85 7.17 5.9 9 11 1027.1 1.8 16.8 25.7 37.3 97.4 86.9 297.2
07/05 08:10 7.6 86 6.93 5.4 9 11 1026.8 1.8 16.3 25.5 36.6 95.6 84.4 288.3
07/05 08:00 6.9 90 6.93 5.4 7 11 1026.7 1.8 16.3 25.7 36.9 96.4 85.1 290.9
07/05 07:50 5.9 91 6.57 4.5 7 7 1026.7 1.8 15.6 25.3 35.9 93.6 81.3 277.2
07/05 07:40 5.1 93 6.37 4.1 7 9 1026.6 1.8 15.2 25.2 35.4 92.3 79.3 270.3
07/05 07:30 4.2 93 6 3.2 9 11 1026.5 1.8 14.4 24.9 34.2 89.3 75.1 255.4
07/05 07:20 3.3 94 5.71 2.4 9 11 1026.4 1.8 13.8 24.6 33.4 87.0 72.0 244.3
07/05 07:10 2.7 93 5.42 1.7 9 9 1026.2 1.8 13.2 24.3 32.4 84.5 68.6 232.2
07/05 07:00 2.3 92 5.22 1.1 4 9 1026.1 1.8 12.8 24.1 31.8 82.7 66.2 223.7
07/05 06:50 2.1 91 5.1 0.8 0 0 1026 1.8 12.6 23.9 31.3 81.5 64.7 218.6
07/05 06:40 2.3 90 5.11 0.8 0 0 1025.8 1.8 12.6 23.9 31.3 81.4 64.7 218.4
07/05 06:30 2.7 90 5.25 1.2 0 0 1025.7 1.8 12.9 24.0 31.7 82.5 66.2 224.0
07/05 06:20 2.7 89 5.19 1.1 0 2 1025.8 1.8 12.7 23.9 31.5 81.9 65.4 221.1
07/05 06:10 2.9 86 5.08 0.8 0 0 1025.9 1.8 12.5 23.7 30.9 80.5 63.8 215.4
07/05 06:00 3.3 85 5.16 1 7 9 1025.8 1.8 12.6 23.7 31.1 80.9 64.5 218.0
07/05 05:50 3.9 82 5.18 1.1 7 9 1025.7 1.8 12.7 23.6 31.0 80.5 64.3 217.3
07/05 05:40 3.9 87 5.5 1.9 15 22 1025.5 1.8 13.4 24.1 32.2 84.0 68.5 232.3
07/05 05:30 2.9 88 5.2 1.1 7 9 1025.3 1.8 12.7 23.8 31.4 81.7 65.3 220.9
07/05 05:20 2.9 86 5.08 0.8 9 9 1025.3 1.8 12.5 23.6 30.9 80.4 63.7 215.3
07/05 05:10 3.2 86 5.19 1.1 11 13 1025.3 1.8 12.7 23.7 31.3 81.3 65.0 219.6
07/05 05:00 3 87 5.18 1.1 11 15 1025.2 1.8 12.7 23.8 31.3 81.4 65.0 219.7
07/05 04:50 2.7 91 5.31 1.4 13 13 1025.3 1.8 13.0 24.1 31.9 83.2 67.0 226.7
07/05 04:40 1.6 94 5.09 0.7 17 19 1025.3 1.8 12.6 24.0 31.5 81.9 64.9 219.3

Last Refresh: 07-May-2026 21:14:31

Bureau of Meteorology